sensor_id;sensor_type;location;lat;lon;timestamp;P1;durP1;ratioP1;P2;durP2;ratioP2
36189;SDS011;22232;50.914;13.858;2023-03-14T00:02:18;2.08;;;1.40;;
36189;SDS011;22232;50.914;13.858;2023-03-14T00:04:45;2.92;;;1.80;;
36189;SDS011;22232;50.914;13.858;2023-03-14T00:07:13;3.33;;;2.25;;
36189;SDS011;22232;50.914;13.858;2023-03-14T00:09:41;4.85;;;2.85;;
36189;SDS011;22232;50.914;13.858;2023-03-14T00:12:08;5.68;;;3.22;;
36189;SDS011;22232;50.914;13.858;2023-03-14T00:14:36;3.63;;;3.15;;
36189;SDS011;22232;50.914;13.858;2023-03-14T00:17:03;4.43;;;3.45;;
36189;SDS011;22232;50.914;13.858;2023-03-14T00:19:31;5.05;;;3.70;;
36189;SDS011;22232;50.914;13.858;2023-03-14T00:21:58;6.78;;;4.22;;
36189;SDS011;22232;50.914;13.858;2023-03-14T00:24:26;5.57;;;4.20;;
36189;SDS011;22232;50.914;13.858;2023-03-14T00:26:53;6.35;;;3.97;;
36189;SDS011;22232;50.914;13.858;2023-03-14T00:29:22;4.97;;;3.90;;
36189;SDS011;22232;50.914;13.858;2023-03-14T00:31:50;4.25;;;3.42;;
36189;SDS011;22232;50.914;13.858;2023-03-14T00:34:17;4.43;;;3.72;;
36189;SDS011;22232;50.914;13.858;2023-03-14T00:36:45;6.22;;;3.80;;
36189;SDS011;22232;50.914;13.858;2023-03-14T00:39:12;6.40;;;3.80;;
36189;SDS011;22232;50.914;13.858;2023-03-14T00:41:40;4.82;;;3.58;;
36189;SDS011;22232;50.914;13.858;2023-03-14T00:44:07;4.53;;;3.53;;
36189;SDS011;22232;50.914;13.858;2023-03-14T00:46:34;5.00;;;4.47;;
36189;SDS011;22232;50.914;13.858;2023-03-14T00:49:03;5.55;;;4.57;;
36189;SDS011;22232;50.914;13.858;2023-03-14T00:51:31;6.97;;;5.63;;
36189;SDS011;22232;50.914;13.858;2023-03-14T00:53:59;7.60;;;5.63;;
36189;SDS011;22232;50.914;13.858;2023-03-14T00:56:27;7.97;;;5.60;;
36189;SDS011;22232;50.914;13.858;2023-03-14T00:58:55;7.22;;;5.68;;
36189;SDS011;22232;50.914;13.858;2023-03-14T01:01:23;9.65;;;5.95;;
36189;SDS011;22232;50.914;13.858;2023-03-14T01:03:51;7.25;;;6.22;;
36189;SDS011;22232;50.914;13.858;2023-03-14T01:06:24;10.50;;;6.97;;
36189;SDS011;22232;50.914;13.858;2023-03-14T01:08:53;9.50;;;7.10;;
36189;SDS011;22232;50.914;13.858;2023-03-14T01:11:23;11.52;;;7.47;;
36189;SDS011;22232;50.914;13.858;2023-03-14T01:13:52;9.60;;;7.25;;
36189;SDS011;22232;50.914;13.858;2023-03-14T01:16:20;11.05;;;6.85;;
36189;SDS011;22232;50.914;13.858;2023-03-14T01:18:49;9.25;;;6.80;;
36189;SDS011;22232;50.914;13.858;2023-03-14T01:21:18;8.75;;;6.45;;
36189;SDS011;22232;50.914;13.858;2023-03-14T01:23:48;9.85;;;6.75;;
36189;SDS011;22232;50.914;13.858;2023-03-14T01:26:19;7.93;;;5.97;;
36189;SDS011;22232;50.914;13.858;2023-03-14T01:28:50;6.93;;;5.60;;
36189;SDS011;22232;50.914;13.858;2023-03-14T01:31:21;8.55;;;5.68;;
36189;SDS011;22232;50.914;13.858;2023-03-14T01:33:49;8.20;;;5.55;;
36189;SDS011;22232;50.914;13.858;2023-03-14T01:36:17;7.13;;;4.95;;
36189;SDS011;22232;50.914;13.858;2023-03-14T01:38:45;9.52;;;6.20;;
36189;SDS011;22232;50.914;13.858;2023-03-14T01:41:16;7.05;;;5.18;;
36189;SDS011;22232;50.914;13.858;2023-03-14T01:43:47;10.95;;;5.28;;
36189;SDS011;22232;50.914;13.858;2023-03-14T01:46:26;7.88;;;5.32;;
36189;SDS011;22232;50.914;13.858;2023-03-14T01:49:01;8.32;;;5.32;;
36189;SDS011;22232;50.914;13.858;2023-03-14T01:52:09;6.85;;;4.80;;
36189;SDS011;22232;50.914;13.858;2023-03-14T01:54:40;7.35;;;5.22;;
36189;SDS011;22232;50.914;13.858;2023-03-14T01:57:15;7.55;;;5.43;;
36189;SDS011;22232;50.914;13.858;2023-03-14T02:00:00;7.22;;;5.25;;
36189;SDS011;22232;50.914;13.858;2023-03-14T02:02:39;7.85;;;5.30;;
36189;SDS011;22232;50.914;13.858;2023-03-14T02:05:12;5.60;;;5.00;;
36189;SDS011;22232;50.914;13.858;2023-03-14T02:07:47;9.63;;;5.10;;
36189;SDS011;22232;50.914;13.858;2023-03-14T02:10:22;6.97;;;5.22;;
36189;SDS011;22232;50.914;13.858;2023-03-14T02:12:53;7.80;;;5.10;;
36189;SDS011;22232;50.914;13.858;2023-03-14T02:15:36;5.93;;;4.72;;
36189;SDS011;22232;50.914;13.858;2023-03-14T02:18:35;7.32;;;4.57;;
36189;SDS011;22232;50.914;13.858;2023-03-14T02:21:40;5.78;;;4.03;;
36189;SDS011;22232;50.914;13.858;2023-03-14T02:27:16;3.35;;;3.03;;
36189;SDS011;22232;50.914;13.858;2023-03-14T02:32:29;2.85;;;2.60;;
36189;SDS011;22232;50.914;13.858;2023-03-14T02:35:00;2.45;;;2.20;;
36189;SDS011;22232;50.914;13.858;2023-03-14T02:37:45;2.08;;;1.98;;
36189;SDS011;22232;50.914;13.858;2023-03-14T02:40:20;3.20;;;1.65;;
36189;SDS011;22232;50.914;13.858;2023-03-14T02:42:50;2.20;;;1.20;;
36189;SDS011;22232;50.914;13.858;2023-03-14T02:47:58;1.60;;;0.90;;
36189;SDS011;22232;50.914;13.858;2023-03-14T02:50:32;0.80;;;0.80;;
36189;SDS011;22232;50.914;13.858;2023-03-14T02:53:01;0.90;;;0.70;;
36189;SDS011;22232;50.914;13.858;2023-03-14T02:55:30;0.50;;;0.40;;
36189;SDS011;22232;50.914;13.858;2023-03-14T02:58:03;0.70;;;0.70;;
36189;SDS011;22232;50.914;13.858;2023-03-14T03:00:31;0.73;;;0.30;;
36189;SDS011;22232;50.914;13.858;2023-03-14T03:02:58;0.20;;;0.20;;
36189;SDS011;22232;50.914;13.858;2023-03-14T03:05:26;0.40;;;0.40;;
36189;SDS011;22232;50.914;13.858;2023-03-14T03:07:53;0.32;;;0.32;;
36189;SDS011;22232;50.914;13.858;2023-03-14T03:10:21;0.20;;;0.20;;
36189;SDS011;22232;50.914;13.858;2023-03-14T03:12:49;0.22;;;0.22;;
36189;SDS011;22232;50.914;13.858;2023-03-14T03:15:21;0.75;;;0.30;;
36189;SDS011;22232;50.914;13.858;2023-03-14T03:17:50;0.30;;;0.30;;
36189;SDS011;22232;50.914;13.858;2023-03-14T03:20:17;0.60;;;0.25;;
36189;SDS011;22232;50.914;13.858;2023-03-14T03:22:45;0.20;;;0.20;;
36189;SDS011;22232;50.914;13.858;2023-03-14T03:25:13;0.20;;;0.20;;
36189;SDS011;22232;50.914;13.858;2023-03-14T03:27:40;0.35;;;0.13;;
36189;SDS011;22232;50.914;13.858;2023-03-14T03:30:08;0.30;;;0.25;;
36189;SDS011;22232;50.914;13.858;2023-03-14T03:32:37;0.45;;;0.30;;
36189;SDS011;22232;50.914;13.858;2023-03-14T03:35:05;2.05;;;0.40;;
36189;SDS011;22232;50.914;13.858;2023-03-14T03:37:36;0.22;;;0.22;;
36189;SDS011;22232;50.914;13.858;2023-03-14T03:40:06;0.20;;;0.20;;
36189;SDS011;22232;50.914;13.858;2023-03-14T03:42:35;0.80;;;0.28;;
36189;SDS011;22232;50.914;13.858;2023-03-14T03:45:05;1.52;;;0.30;;
36189;SDS011;22232;50.914;13.858;2023-03-14T03:47:37;0.28;;;0.28;;
36189;SDS011;22232;50.914;13.858;2023-03-14T03:50:05;0.40;;;0.40;;
36189;SDS011;22232;50.914;13.858;2023-03-14T03:52:33;0.30;;;0.28;;
36189;SDS011;22232;50.914;13.858;2023-03-14T03:55:01;0.35;;;0.35;;
36189;SDS011;22232;50.914;13.858;2023-03-14T03:57:28;0.88;;;0.43;;
36189;SDS011;22232;50.914;13.858;2023-03-14T03:59:56;0.77;;;0.20;;
36189;SDS011;22232;50.914;13.858;2023-03-14T04:02:24;1.75;;;0.40;;
36189;SDS011;22232;50.914;13.858;2023-03-14T04:04:52;0.28;;;0.22;;
36189;SDS011;22232;50.914;13.858;2023-03-14T04:07:19;0.65;;;0.30;;
36189;SDS011;22232;50.914;13.858;2023-03-14T04:09:47;0.35;;;0.30;;
36189;SDS011;22232;50.914;13.858;2023-03-14T04:12:37;0.75;;;0.50;;
36189;SDS011;22232;50.914;13.858;2023-03-14T04:15:12;0.35;;;0.32;;
36189;SDS011;22232;50.914;13.858;2023-03-14T04:17:45;0.32;;;0.32;;
36189;SDS011;22232;50.914;13.858;2023-03-14T04:20:14;0.65;;;0.65;;
36189;SDS011;22232;50.914;13.858;2023-03-14T04:22:42;0.52;;;0.20;;
36189;SDS011;22232;50.914;13.858;2023-03-14T04:25:11;0.30;;;0.30;;
36189;SDS011;22232;50.914;13.858;2023-03-14T04:27:44;0.30;;;0.30;;
36189;SDS011;22232;50.914;13.858;2023-03-14T04:30:18;0.60;;;0.30;;
36189;SDS011;22232;50.914;13.858;2023-03-14T04:32:53;0.50;;;0.40;;
36189;SDS011;22232;50.914;13.858;2023-03-14T04:35:23;1.58;;;0.40;;
36189;SDS011;22232;50.914;13.858;2023-03-14T04:37:55;0.65;;;0.28;;
36189;SDS011;22232;50.914;13.858;2023-03-14T04:40:23;0.70;;;0.43;;
36189;SDS011;22232;50.914;13.858;2023-03-14T04:42:54;1.75;;;0.40;;
36189;SDS011;22232;50.914;13.858;2023-03-14T04:45:22;0.30;;;0.30;;
36189;SDS011;22232;50.914;13.858;2023-03-14T04:47:50;0.50;;;0.40;;
36189;SDS011;22232;50.914;13.858;2023-03-14T04:50:19;1.48;;;0.20;;
36189;SDS011;22232;50.914;13.858;2023-03-14T04:52:47;1.90;;;0.32;;
36189;SDS011;22232;50.914;13.858;2023-03-14T04:55:15;1.73;;;0.40;;
36189;SDS011;22232;50.914;13.858;2023-03-14T04:57:43;0.82;;;0.30;;
36189;SDS011;22232;50.914;13.858;2023-03-14T05:00:11;2.35;;;0.50;;
36189;SDS011;22232;50.914;13.858;2023-03-14T05:02:48;2.47;;;0.50;;
36189;SDS011;22232;50.914;13.858;2023-03-14T05:05:42;1.80;;;0.50;;
36189;SDS011;22232;50.914;13.858;2023-03-14T05:08:29;2.33;;;0.55;;
36189;SDS011;22232;50.914;13.858;2023-03-14T05:11:23;0.40;;;0.40;;
36189;SDS011;22232;50.914;13.858;2023-03-14T05:14:02;1.00;;;0.30;;
36189;SDS011;22232;50.914;13.858;2023-03-14T05:16:53;0.52;;;0.30;;
36189;SDS011;22232;50.914;13.858;2023-03-14T05:19:33;0.40;;;0.30;;
36189;SDS011;22232;50.914;13.858;2023-03-14T05:22:02;2.08;;;0.52;;
36189;SDS011;22232;50.914;13.858;2023-03-14T05:24:51;1.05;;;0.40;;
36189;SDS011;22232;50.914;13.858;2023-03-14T05:27:33;1.73;;;0.38;;
36189;SDS011;22232;50.914;13.858;2023-03-14T05:30:19;2.00;;;0.75;;
36189;SDS011;22232;50.914;13.858;2023-03-14T05:33:07;1.30;;;0.57;;
36189;SDS011;22232;50.914;13.858;2023-03-14T05:36:02;1.25;;;0.43;;
36189;SDS011;22232;50.914;13.858;2023-03-14T05:38:40;3.25;;;0.65;;
36189;SDS011;22232;50.914;13.858;2023-03-14T05:41:26;1.63;;;0.57;;
36189;SDS011;22232;50.914;13.858;2023-03-14T05:44:13;2.95;;;0.70;;
36189;SDS011;22232;50.914;13.858;2023-03-14T05:46:58;3.10;;;0.60;;
36189;SDS011;22232;50.914;13.858;2023-03-14T05:49:44;4.65;;;0.90;;
36189;SDS011;22232;50.914;13.858;2023-03-14T05:52:41;2.85;;;0.73;;
36189;SDS011;22232;50.914;13.858;2023-03-14T05:58:10;2.08;;;0.88;;
36189;SDS011;22232;50.914;13.858;2023-03-14T06:00:44;2.28;;;0.60;;
36189;SDS011;22232;50.914;13.858;2023-03-14T06:03:22;6.28;;;1.15;;
36189;SDS011;22232;50.914;13.858;2023-03-14T06:05:50;4.32;;;0.80;;
36189;SDS011;22232;50.914;13.858;2023-03-14T06:08:20;2.80;;;0.95;;
36189;SDS011;22232;50.914;13.858;2023-03-14T06:10:48;2.28;;;0.70;;
36189;SDS011;22232;50.914;13.858;2023-03-14T06:13:15;1.38;;;0.90;;
36189;SDS011;22232;50.914;13.858;2023-03-14T06:15:43;2.28;;;1.13;;
36189;SDS011;22232;50.914;13.858;2023-03-14T06:18:11;5.05;;;1.00;;
36189;SDS011;22232;50.914;13.858;2023-03-14T06:20:40;4.60;;;0.95;;
36189;SDS011;22232;50.914;13.858;2023-03-14T06:23:11;2.47;;;1.00;;
36189;SDS011;22232;50.914;13.858;2023-03-14T06:25:38;2.92;;;0.80;;
36189;SDS011;22232;50.914;13.858;2023-03-14T06:31:08;3.28;;;1.10;;
36189;SDS011;22232;50.914;13.858;2023-03-14T06:33:45;2.63;;;0.80;;
36189;SDS011;22232;50.914;13.858;2023-03-14T06:36:13;2.72;;;0.90;;
36189;SDS011;22232;50.914;13.858;2023-03-14T06:38:43;4.55;;;1.10;;
36189;SDS011;22232;50.914;13.858;2023-03-14T06:41:10;2.33;;;0.70;;
36189;SDS011;22232;50.914;13.858;2023-03-14T06:43:40;3.53;;;1.02;;
36189;SDS011;22232;50.914;13.858;2023-03-14T06:46:09;3.38;;;1.02;;
36189;SDS011;22232;50.914;13.858;2023-03-14T06:48:38;0.93;;;0.60;;
36189;SDS011;22232;50.914;13.858;2023-03-14T06:51:07;5.45;;;0.98;;
36189;SDS011;22232;50.914;13.858;2023-03-14T06:53:34;3.35;;;0.93;;
36189;SDS011;22232;50.914;13.858;2023-03-14T06:56:02;6.20;;;1.23;;
36189;SDS011;22232;50.914;13.858;2023-03-14T06:58:32;3.28;;;1.02;;
36189;SDS011;22232;50.914;13.858;2023-03-14T07:01:02;4.15;;;1.10;;
36189;SDS011;22232;50.914;13.858;2023-03-14T07:03:36;4.57;;;1.17;;
36189;SDS011;22232;50.914;13.858;2023-03-14T07:06:05;2.35;;;0.88;;
36189;SDS011;22232;50.914;13.858;2023-03-14T07:08:33;5.47;;;1.30;;
36189;SDS011;22232;50.914;13.858;2023-03-14T07:11:01;3.15;;;1.23;;
36189;SDS011;22232;50.914;13.858;2023-03-14T07:13:29;3.20;;;1.10;;
36189;SDS011;22232;50.914;13.858;2023-03-14T07:16:02;3.97;;;0.80;;
36189;SDS011;22232;50.914;13.858;2023-03-14T07:18:30;6.57;;;1.48;;
36189;SDS011;22232;50.914;13.858;2023-03-14T07:20:58;8.02;;;1.08;;
36189;SDS011;22232;50.914;13.858;2023-03-14T07:23:26;7.88;;;1.25;;
36189;SDS011;22232;50.914;13.858;2023-03-14T07:25:53;3.50;;;0.82;;
36189;SDS011;22232;50.914;13.858;2023-03-14T07:28:24;3.75;;;1.13;;
36189;SDS011;22232;50.914;13.858;2023-03-14T07:33:30;4.75;;;1.30;;
36189;SDS011;22232;50.914;13.858;2023-03-14T07:35:58;8.07;;;1.15;;
36189;SDS011;22232;50.914;13.858;2023-03-14T07:38:27;5.82;;;1.15;;
36189;SDS011;22232;50.914;13.858;2023-03-14T07:41:27;8.40;;;1.50;;
36189;SDS011;22232;50.914;13.858;2023-03-14T07:44:13;3.22;;;1.00;;
36189;SDS011;22232;50.914;13.858;2023-03-14T07:46:40;3.55;;;1.10;;
36189;SDS011;22232;50.914;13.858;2023-03-14T07:49:08;3.78;;;1.00;;
36189;SDS011;22232;50.914;13.858;2023-03-14T07:51:35;3.15;;;1.08;;
36189;SDS011;22232;50.914;13.858;2023-03-14T07:54:03;7.50;;;1.20;;
36189;SDS011;22232;50.914;13.858;2023-03-14T07:56:30;3.40;;;1.00;;
36189;SDS011;22232;50.914;13.858;2023-03-14T07:58:58;1.98;;;0.75;;
36189;SDS011;22232;50.914;13.858;2023-03-14T08:01:25;5.18;;;1.00;;
36189;SDS011;22232;50.914;13.858;2023-03-14T08:03:53;4.72;;;1.20;;
36189;SDS011;22232;50.914;13.858;2023-03-14T08:06:21;1.90;;;0.80;;
36189;SDS011;22232;50.914;13.858;2023-03-14T08:08:48;6.40;;;1.20;;
36189;SDS011;22232;50.914;13.858;2023-03-14T08:11:15;3.80;;;0.90;;
36189;SDS011;22232;50.914;13.858;2023-03-14T08:13:43;3.95;;;0.88;;
36189;SDS011;22232;50.914;13.858;2023-03-14T08:16:16;2.23;;;0.70;;
36189;SDS011;22232;50.914;13.858;2023-03-14T08:18:44;3.40;;;0.90;;
36189;SDS011;22232;50.914;13.858;2023-03-14T08:21:13;3.90;;;0.85;;
36189;SDS011;22232;50.914;13.858;2023-03-14T08:23:41;1.95;;;1.00;;
36189;SDS011;22232;50.914;13.858;2023-03-14T08:26:08;3.83;;;0.98;;
36189;SDS011;22232;50.914;13.858;2023-03-14T08:28:36;2.92;;;0.90;;
36189;SDS011;22232;50.914;13.858;2023-03-14T08:31:03;3.42;;;0.70;;
36189;SDS011;22232;50.914;13.858;2023-03-14T08:33:31;2.22;;;1.00;;
36189;SDS011;22232;50.914;13.858;2023-03-14T08:35:59;3.08;;;0.88;;
36189;SDS011;22232;50.914;13.858;2023-03-14T08:38:27;1.48;;;0.60;;
36189;SDS011;22232;50.914;13.858;2023-03-14T08:40:56;2.83;;;1.02;;
36189;SDS011;22232;50.914;13.858;2023-03-14T08:43:25;2.90;;;0.82;;
36189;SDS011;22232;50.914;13.858;2023-03-14T08:45:53;3.42;;;1.08;;
36189;SDS011;22232;50.914;13.858;2023-03-14T08:48:24;3.42;;;0.70;;
36189;SDS011;22232;50.914;13.858;2023-03-14T08:50:51;1.65;;;0.73;;
36189;SDS011;22232;50.914;13.858;2023-03-14T08:53:19;3.33;;;1.27;;
36189;SDS011;22232;50.914;13.858;2023-03-14T08:55:52;4.70;;;1.13;;
36189;SDS011;22232;50.914;13.858;2023-03-14T08:58:21;2.40;;;0.60;;
36189;SDS011;22232;50.914;13.858;2023-03-14T09:00:50;1.98;;;0.88;;
36189;SDS011;22232;50.914;13.858;2023-03-14T09:03:18;3.83;;;0.85;;
36189;SDS011;22232;50.914;13.858;2023-03-14T09:05:46;2.70;;;0.70;;
36189;SDS011;22232;50.914;13.858;2023-03-14T09:08:13;3.33;;;0.70;;
36189;SDS011;22232;50.914;13.858;2023-03-14T09:10:41;3.15;;;0.57;;
36189;SDS011;22232;50.914;13.858;2023-03-14T09:13:08;1.38;;;0.70;;
36189;SDS011;22232;50.914;13.858;2023-03-14T09:15:35;1.52;;;0.70;;
36189;SDS011;22232;50.914;13.858;2023-03-14T09:18:03;1.58;;;0.40;;
36189;SDS011;22232;50.914;13.858;2023-03-14T09:20:30;2.45;;;0.60;;
36189;SDS011;22232;50.914;13.858;2023-03-14T09:22:59;1.25;;;0.60;;
36189;SDS011;22232;50.914;13.858;2023-03-14T09:25:26;2.03;;;0.73;;
36189;SDS011;22232;50.914;13.858;2023-03-14T09:27:54;2.83;;;0.60;;
36189;SDS011;22232;50.914;13.858;2023-03-14T09:30:21;1.45;;;0.50;;
36189;SDS011;22232;50.914;13.858;2023-03-14T09:32:50;1.10;;;0.60;;
36189;SDS011;22232;50.914;13.858;2023-03-14T09:35:18;3.45;;;0.60;;
36189;SDS011;22232;50.914;13.858;2023-03-14T09:37:45;2.05;;;0.40;;
36189;SDS011;22232;50.914;13.858;2023-03-14T09:40:14;2.67;;;0.68;;
36189;SDS011;22232;50.914;13.858;2023-03-14T09:42:43;1.67;;;0.65;;
36189;SDS011;22232;50.914;13.858;2023-03-14T09:45:46;2.38;;;0.70;;
36189;SDS011;22232;50.914;13.858;2023-03-14T09:48:10;2.85;;;0.80;;
36189;SDS011;22232;50.914;13.858;2023-03-14T09:50:45;1.85;;;0.80;;
36189;SDS011;22232;50.914;13.858;2023-03-14T09:53:17;1.73;;;1.00;;
36189;SDS011;22232;50.914;13.858;2023-03-14T09:55:47;2.28;;;0.80;;
36189;SDS011;22232;50.914;13.858;2023-03-14T09:58:19;1.42;;;0.80;;
36189;SDS011;22232;50.914;13.858;2023-03-14T10:00:49;1.17;;;0.55;;
36189;SDS011;22232;50.914;13.858;2023-03-14T10:05:52;1.97;;;0.97;;
36189;SDS011;22232;50.914;13.858;2023-03-14T10:08:20;1.23;;;0.50;;
36189;SDS011;22232;50.914;13.858;2023-03-14T10:10:47;2.63;;;0.60;;
36189;SDS011;22232;50.914;13.858;2023-03-14T10:15:55;1.52;;;0.77;;
36189;SDS011;22232;50.914;13.858;2023-03-14T10:18:28;1.58;;;0.43;;
36189;SDS011;22232;50.914;13.858;2023-03-14T10:21:02;2.38;;;0.75;;
36189;SDS011;22232;50.914;13.858;2023-03-14T10:23:31;0.50;;;0.40;;
36189;SDS011;22232;50.914;13.858;2023-03-14T10:26:46;0.93;;;0.50;;
36189;SDS011;22232;50.914;13.858;2023-03-14T10:28:54;0.98;;;0.30;;
36189;SDS011;22232;50.914;13.858;2023-03-14T10:31:35;2.08;;;0.50;;
36189;SDS011;22232;50.914;13.858;2023-03-14T10:34:20;1.25;;;0.60;;
36189;SDS011;22232;50.914;13.858;2023-03-14T10:36:53;1.45;;;0.68;;
36189;SDS011;22232;50.914;13.858;2023-03-14T10:39:24;0.63;;;0.47;;
36189;SDS011;22232;50.914;13.858;2023-03-14T10:42:14;2.97;;;0.90;;
36189;SDS011;22232;50.914;13.858;2023-03-14T10:44:47;1.65;;;0.50;;
36189;SDS011;22232;50.914;13.858;2023-03-14T10:47:21;1.63;;;1.02;;
36189;SDS011;22232;50.914;13.858;2023-03-14T10:49:51;3.88;;;0.88;;
36189;SDS011;22232;50.914;13.858;2023-03-14T10:52:20;2.40;;;0.80;;
36189;SDS011;22232;50.914;13.858;2023-03-14T10:55:12;1.13;;;0.68;;
36189;SDS011;22232;50.914;13.858;2023-03-14T10:57:41;1.45;;;0.80;;
36189;SDS011;22232;50.914;13.858;2023-03-14T11:00:16;1.88;;;0.85;;
36189;SDS011;22232;50.914;13.858;2023-03-14T11:05:31;1.52;;;0.80;;
36189;SDS011;22232;50.914;13.858;2023-03-14T11:08:09;1.27;;;0.90;;
36189;SDS011;22232;50.914;13.858;2023-03-14T11:10:42;0.77;;;0.60;;
36189;SDS011;22232;50.914;13.858;2023-03-14T11:16:14;1.05;;;0.82;;
36189;SDS011;22232;50.914;13.858;2023-03-14T11:27:06;1.10;;;0.70;;
36189;SDS011;22232;50.914;13.858;2023-03-14T11:35:15;1.33;;;0.60;;
36189;SDS011;22232;50.914;13.858;2023-03-14T11:37:56;0.50;;;0.50;;
36189;SDS011;22232;50.914;13.858;2023-03-14T11:40:37;0.70;;;0.60;;
36189;SDS011;22232;50.914;13.858;2023-03-14T11:45:39;1.57;;;0.53;;
36189;SDS011;22232;50.914;13.858;2023-03-14T11:51:05;0.80;;;0.40;;
36189;SDS011;22232;50.914;13.858;2023-03-14T11:54:43;1.98;;;1.13;;
36189;SDS011;22232;50.914;13.858;2023-03-14T11:59:28;1.30;;;0.35;;
36189;SDS011;22232;50.914;13.858;2023-03-14T12:02:01;1.73;;;0.50;;
36189;SDS011;22232;50.914;13.858;2023-03-14T12:07:20;0.88;;;0.50;;
36189;SDS011;22232;50.914;13.858;2023-03-14T12:09:53;0.93;;;0.52;;
36189;SDS011;22232;50.914;13.858;2023-03-14T12:12:22;1.70;;;0.50;;
36189;SDS011;22232;50.914;13.858;2023-03-14T12:14:56;1.50;;;0.40;;
36189;SDS011;22232;50.914;13.858;2023-03-14T12:17:39;2.22;;;0.40;;
36189;SDS011;22232;50.914;13.858;2023-03-14T12:20:17;0.55;;;0.55;;
36189;SDS011;22232;50.914;13.858;2023-03-14T12:23:02;1.70;;;0.50;;
36189;SDS011;22232;50.914;13.858;2023-03-14T12:30:35;1.10;;;0.50;;
36189;SDS011;22232;50.914;13.858;2023-03-14T12:35:44;3.53;;;0.52;;
36189;SDS011;22232;50.914;13.858;2023-03-14T12:43:56;1.05;;;0.60;;
36189;SDS011;22232;50.914;13.858;2023-03-14T12:46:24;2.53;;;0.60;;
36189;SDS011;22232;50.914;13.858;2023-03-14T12:48:54;2.33;;;0.55;;
36189;SDS011;22232;50.914;13.858;2023-03-14T12:59:44;1.13;;;0.50;;
36189;SDS011;22232;50.914;13.858;2023-03-14T13:04:48;1.73;;;0.40;;
36189;SDS011;22232;50.914;13.858;2023-03-14T13:10:18;0.95;;;0.40;;
36189;SDS011;22232;50.914;13.858;2023-03-14T13:15:24;1.10;;;0.60;;
36189;SDS011;22232;50.914;13.858;2023-03-14T13:17:59;3.47;;;0.68;;
36189;SDS011;22232;50.914;13.858;2023-03-14T13:20:34;0.80;;;0.40;;
36189;SDS011;22232;50.914;13.858;2023-03-14T13:23:18;0.65;;;0.35;;
36189;SDS011;22232;50.914;13.858;2023-03-14T13:25:47;0.30;;;0.30;;
36189;SDS011;22232;50.914;13.858;2023-03-14T13:28:15;0.68;;;0.30;;
36189;SDS011;22232;50.914;13.858;2023-03-14T13:30:44;0.25;;;0.25;;
36189;SDS011;22232;50.914;13.858;2023-03-14T13:33:15;2.00;;;0.40;;
36189;SDS011;22232;50.914;13.858;2023-03-14T13:35:47;0.70;;;0.30;;
36189;SDS011;22232;50.914;13.858;2023-03-14T13:38:19;0.38;;;0.20;;
36189;SDS011;22232;50.914;13.858;2023-03-14T13:40:53;0.85;;;0.40;;
36189;SDS011;22232;50.914;13.858;2023-03-14T13:46:05;0.20;;;0.20;;
36189;SDS011;22232;50.914;13.858;2023-03-14T13:48:44;1.30;;;0.30;;
36189;SDS011;22232;50.914;13.858;2023-03-14T13:51:18;1.02;;;0.40;;
36189;SDS011;22232;50.914;13.858;2023-03-14T13:53:57;0.98;;;0.47;;
36189;SDS011;22232;50.914;13.858;2023-03-14T13:56:30;0.30;;;0.30;;
36189;SDS011;22232;50.914;13.858;2023-03-14T13:58:59;0.73;;;0.30;;
36189;SDS011;22232;50.914;13.858;2023-03-14T14:01:30;0.30;;;0.20;;
36189;SDS011;22232;50.914;13.858;2023-03-14T14:04:14;0.52;;;0.40;;
36189;SDS011;22232;50.914;13.858;2023-03-14T14:06:46;1.20;;;0.40;;
36189;SDS011;22232;50.914;13.858;2023-03-14T14:09:37;0.55;;;0.30;;
36189;SDS011;22232;50.914;13.858;2023-03-14T14:12:10;0.38;;;0.28;;
36189;SDS011;22232;50.914;13.858;2023-03-14T14:14:47;0.22;;;0.22;;
36189;SDS011;22232;50.914;13.858;2023-03-14T14:17:26;0.28;;;0.20;;
36189;SDS011;22232;50.914;13.858;2023-03-14T14:20:00;0.55;;;0.20;;
36189;SDS011;22232;50.914;13.858;2023-03-14T14:22:32;2.07;;;0.23;;
36189;SDS011;22232;50.914;13.858;2023-03-14T14:25:00;0.15;;;0.15;;
36189;SDS011;22232;50.914;13.858;2023-03-14T14:27:38;0.38;;;0.35;;
36189;SDS011;22232;50.914;13.858;2023-03-14T14:30:30;0.82;;;0.30;;
36189;SDS011;22232;50.914;13.858;2023-03-14T14:36:13;0.52;;;0.20;;
36189;SDS011;22232;50.914;13.858;2023-03-14T14:39:06;0.70;;;0.40;;
36189;SDS011;22232;50.914;13.858;2023-03-14T14:41:42;1.17;;;0.43;;
36189;SDS011;22232;50.914;13.858;2023-03-14T14:44:11;0.40;;;0.40;;
36189;SDS011;22232;50.914;13.858;2023-03-14T14:46:41;4.53;;;1.00;;
36189;SDS011;22232;50.914;13.858;2023-03-14T14:49:11;1.77;;;0.82;;
36189;SDS011;22232;50.914;13.858;2023-03-14T14:51:42;0.30;;;0.30;;
36189;SDS011;22232;50.914;13.858;2023-03-14T14:54:32;0.20;;;0.15;;
36189;SDS011;22232;50.914;13.858;2023-03-14T14:57:18;0.73;;;0.30;;
36189;SDS011;22232;50.914;13.858;2023-03-14T14:59:48;0.45;;;0.30;;
36189;SDS011;22232;50.914;13.858;2023-03-14T15:02:39;1.42;;;0.63;;
36189;SDS011;22232;50.914;13.858;2023-03-14T15:05:13;0.40;;;0.40;;
36189;SDS011;22232;50.914;13.858;2023-03-14T15:07:40;0.50;;;0.35;;
36189;SDS011;22232;50.914;13.858;2023-03-14T15:10:09;0.20;;;0.20;;
36189;SDS011;22232;50.914;13.858;2023-03-14T15:12:38;0.32;;;0.30;;
36189;SDS011;22232;50.914;13.858;2023-03-14T15:15:06;0.20;;;0.20;;
36189;SDS011;22232;50.914;13.858;2023-03-14T15:17:34;0.20;;;0.20;;
36189;SDS011;22232;50.914;13.858;2023-03-14T15:20:09;0.30;;;0.20;;
36189;SDS011;22232;50.914;13.858;2023-03-14T15:22:42;1.40;;;0.55;;
36189;SDS011;22232;50.914;13.858;2023-03-14T15:25:10;0.45;;;0.28;;
36189;SDS011;22232;50.914;13.858;2023-03-14T15:27:58;0.47;;;0.22;;
36189;SDS011;22232;50.914;13.858;2023-03-14T15:30:26;0.10;;;0.10;;
36189;SDS011;22232;50.914;13.858;2023-03-14T15:32:53;0.55;;;0.50;;
36189;SDS011;22232;50.914;13.858;2023-03-14T15:35:21;0.10;;;0.10;;
36189;SDS011;22232;50.914;13.858;2023-03-14T15:37:48;0.30;;;0.30;;
36189;SDS011;22232;50.914;13.858;2023-03-14T15:40:16;0.60;;;0.40;;
36189;SDS011;22232;50.914;13.858;2023-03-14T15:42:45;0.95;;;0.28;;
36189;SDS011;22232;50.914;13.858;2023-03-14T15:45:13;0.57;;;0.30;;
36189;SDS011;22232;50.914;13.858;2023-03-14T15:47:40;0.63;;;0.35;;
36189;SDS011;22232;50.914;13.858;2023-03-14T15:50:08;0.75;;;0.40;;
36189;SDS011;22232;50.914;13.858;2023-03-14T15:52:37;0.32;;;0.22;;
36189;SDS011;22232;50.914;13.858;2023-03-14T15:55:05;0.32;;;0.30;;
36189;SDS011;22232;50.914;13.858;2023-03-14T15:57:32;0.52;;;0.30;;
36189;SDS011;22232;50.914;13.858;2023-03-14T16:00:00;3.58;;;0.30;;
36189;SDS011;22232;50.914;13.858;2023-03-14T16:02:31;0.75;;;0.30;;
36189;SDS011;22232;50.914;13.858;2023-03-14T16:04:58;0.75;;;0.32;;
36189;SDS011;22232;50.914;13.858;2023-03-14T16:07:26;0.40;;;0.30;;
36189;SDS011;22232;50.914;13.858;2023-03-14T16:09:53;0.30;;;0.22;;
36189;SDS011;22232;50.914;13.858;2023-03-14T16:12:20;0.40;;;0.30;;
36189;SDS011;22232;50.914;13.858;2023-03-14T16:14:48;0.68;;;0.50;;
36189;SDS011;22232;50.914;13.858;2023-03-14T16:17:15;1.35;;;0.38;;
36189;SDS011;22232;50.914;13.858;2023-03-14T16:19:43;0.95;;;0.50;;
36189;SDS011;22232;50.914;13.858;2023-03-14T16:22:11;1.42;;;0.70;;
36189;SDS011;22232;50.914;13.858;2023-03-14T16:24:38;0.98;;;0.50;;
36189;SDS011;22232;50.914;13.858;2023-03-14T16:27:06;0.60;;;0.40;;
36189;SDS011;22232;50.914;13.858;2023-03-14T16:29:34;0.63;;;0.43;;
36189;SDS011;22232;50.914;13.858;2023-03-14T16:32:02;1.33;;;0.60;;